createdAt,value
2018-12-06T07:32:06.687Z,12.90
2018-12-06T07:34:22.647Z,9.13
2018-12-06T07:36:32.927Z,10.70
2018-12-06T07:38:51.272Z,7.67
2018-12-06T07:40:59.265Z,11.73
2018-12-06T07:43:10.923Z,16.27
2018-12-06T07:45:23.339Z,10.93
2018-12-06T07:47:42.027Z,13.80
2018-12-06T07:49:54.171Z,7.77
2018-12-06T07:54:21.544Z,13.23
2018-12-06T07:56:34.251Z,13.87
2018-12-06T07:58:43.817Z,15.93
2018-12-06T08:00:54.460Z,10.97
2018-12-06T08:03:06.497Z,10.57
2018-12-06T08:05:21.183Z,11.23
2018-12-06T08:07:34.472Z,14.47
2018-12-06T08:09:45.256Z,10.00
2018-12-06T08:12:54.014Z,21.20
2018-12-06T08:17:06.273Z,10.17
2018-12-06T08:19:09.700Z,10.73
2018-12-06T08:21:22.050Z,12.43
2018-12-06T08:23:36.428Z,11.20
2018-12-06T08:25:47.584Z,16.80
2018-12-06T08:27:58.859Z,11.10
2018-12-06T08:30:09.515Z,14.67
2018-12-06T08:32:18.763Z,13.07
2018-12-06T08:34:35.819Z,13.10
2018-12-06T08:36:45.790Z,12.33
2018-12-06T08:38:54.658Z,14.23
2018-12-06T08:41:16.789Z,16.17
2018-12-06T08:43:31.878Z,17.67
2018-12-06T08:45:42.371Z,11.27
2018-12-06T08:47:50.935Z,15.23
2018-12-06T08:50:00.576Z,17.77
2018-12-06T08:52:08.470Z,11.83
2018-12-06T08:54:15.595Z,14.83
2018-12-06T08:56:25.282Z,13.40
2018-12-06T08:58:33.037Z,13.60
2018-12-06T09:00:40.788Z,12.03
2018-12-06T09:02:51.587Z,12.47
2018-12-06T09:04:59.616Z,15.43
2018-12-06T09:07:06.638Z,14.37
2018-12-06T09:09:15.281Z,14.30
2018-12-06T09:11:21.224Z,13.07
2018-12-06T09:13:33.995Z,11.30
2018-12-06T09:15:41.857Z,14.90
2018-12-06T09:17:49.695Z,7.93
2018-12-06T09:19:55.047Z,11.73
2018-12-06T09:22:00.540Z,15.30
2018-12-06T09:24:08.433Z,8.03
2018-12-06T09:26:21.259Z,12.67
2018-12-06T09:28:33.718Z,12.90
2018-12-06T09:30:45.631Z,15.40
2018-12-06T09:32:52.558Z,20.03
2018-12-06T09:34:59.983Z,14.40
2018-12-06T09:37:08.685Z,16.10
2018-12-06T09:39:19.115Z,14.17
2018-12-06T09:41:30.679Z,12.93
2018-12-06T09:43:42.001Z,15.30
2018-12-06T09:45:50.023Z,11.37
2018-12-06T09:48:03.211Z,11.70
2018-12-06T09:50:11.715Z,12.47
2018-12-06T09:52:21.387Z,11.37
2018-12-06T09:54:36.875Z,13.30
2018-12-06T09:56:46.283Z,13.70
2018-12-06T09:58:53.400Z,11.70
2018-12-06T10:01:03.016Z,10.40
2018-12-06T10:03:09.137Z,14.40
2018-12-06T10:05:19.112Z,12.17
2018-12-06T10:07:31.376Z,15.03
2018-12-06T10:09:46.282Z,12.33
2018-12-06T10:11:58.030Z,13.50
2018-12-06T10:14:10.827Z,12.77
2018-12-06T10:16:23.087Z,10.63
2018-12-06T10:18:31.595Z,14.00
2018-12-06T10:20:42.938Z,14.43
2018-12-06T10:22:48.930Z,14.60
2018-12-06T10:24:56.566Z,11.90
2018-12-06T10:27:05.647Z,15.27
2018-12-06T10:29:19.075Z,16.00
2018-12-06T10:31:27.131Z,17.10
2018-12-06T10:33:33.108Z,13.27
2018-12-06T10:35:42.731Z,15.40
2018-12-06T10:38:00.301Z,11.70
2018-12-06T10:40:07.800Z,12.67
2018-12-06T10:42:16.911Z,11.00
2018-12-06T10:44:40.363Z,15.77
2018-12-06T10:46:51.811Z,12.27
2018-12-06T10:49:02.079Z,9.30
2018-12-06T10:51:48.039Z,13.00
2018-12-06T10:53:59.520Z,13.33
2018-12-06T10:56:10.959Z,14.57
2018-12-06T10:58:24.175Z,11.13
2018-12-06T11:00:57.064Z,11.40
2018-12-06T11:03:15.296Z,12.70
2018-12-06T11:05:24.195Z,10.10
2018-12-06T11:07:30.464Z,11.57
2018-12-06T11:09:44.311Z,14.37
2018-12-06T11:11:54.655Z,13.17
2018-12-06T11:14:01.848Z,11.30
2018-12-06T11:16:08.103Z,9.13
2018-12-06T11:18:14.540Z,13.57
2018-12-06T11:20:22.135Z,10.27
2018-12-06T11:22:31.019Z,12.57
2018-12-06T11:24:41.355Z,13.93
2018-12-06T11:26:48.915Z,13.23
2018-12-06T11:28:59.179Z,14.37
2018-12-06T11:31:07.763Z,9.23
2018-12-06T11:33:14.347Z,11.37
2018-12-06T11:35:21.163Z,13.47
2018-12-06T11:37:31.852Z,12.10
2018-12-06T11:39:39.275Z,10.33
2018-12-06T11:41:46.095Z,11.70
2018-12-06T11:43:57.699Z,14.67
2018-12-06T11:46:06.906Z,14.63
2018-12-06T11:48:14.444Z,13.73
2018-12-06T11:50:23.438Z,11.30
2018-12-06T11:52:31.533Z,9.50
2018-12-06T11:54:45.163Z,10.83
2018-12-06T11:56:55.585Z,15.33
2018-12-06T11:59:05.004Z,10.93
2018-12-06T12:01:14.904Z,11.07
2018-12-06T12:03:27.522Z,12.17
2018-12-06T12:05:37.836Z,12.13
2018-12-06T12:07:45.769Z,9.53
2018-12-06T12:14:09.124Z,12.47
2018-12-06T12:16:19.927Z,12.77
2018-12-06T12:18:28.483Z,8.43
2018-12-06T12:20:38.751Z,9.73
2018-12-06T12:22:45.305Z,8.83
2018-12-06T12:24:54.732Z,10.67
2018-12-06T12:27:05.188Z,8.03
2018-12-06T12:29:12.335Z,11.23
2018-12-06T12:31:22.018Z,8.47
2018-12-06T12:33:30.955Z,6.93
2018-12-06T12:35:43.244Z,7.90
2018-12-06T12:37:53.055Z,9.40
2018-12-06T12:39:59.840Z,9.57
2018-12-06T12:42:08.695Z,7.33
2018-12-06T12:44:18.960Z,10.43
2018-12-06T12:46:34.093Z,8.17
2018-12-06T12:48:41.447Z,8.30
2018-12-06T12:50:50.987Z,9.33
2018-12-06T12:53:05.095Z,9.20
2018-12-06T12:55:11.297Z,11.13
2018-12-06T12:57:22.477Z,12.10
2018-12-06T12:59:31.847Z,11.23
2018-12-06T13:01:41.079Z,9.57
2018-12-06T13:03:47.827Z,9.20
2018-12-06T13:05:59.175Z,12.43
2018-12-06T13:08:05.951Z,7.70
2018-12-06T13:10:14.740Z,10.40
2018-12-06T13:12:25.519Z,10.60
2018-12-06T13:14:38.222Z,12.47
2018-12-06T13:16:49.771Z,12.07
2018-12-06T13:18:59.168Z,10.13
2018-12-06T13:21:05.499Z,11.27
2018-12-06T13:23:11.372Z,11.63
2018-12-06T13:25:17.290Z,11.97
2018-12-06T13:27:32.051Z,11.87
2018-12-06T13:29:39.947Z,11.50
2018-12-06T13:31:48.479Z,10.73
2018-12-06T13:33:57.301Z,12.97
2018-12-06T13:36:12.626Z,15.20
2018-12-06T13:38:20.027Z,13.00
2018-12-06T13:40:33.871Z,13.57
2018-12-06T13:42:45.251Z,14.27
2018-12-06T13:44:51.260Z,15.77
2018-12-06T13:46:57.443Z,15.60
2018-12-06T13:49:08.207Z,13.07
2018-12-06T13:51:15.348Z,15.20
2018-12-06T13:53:23.267Z,13.90
2018-12-06T13:55:30.003Z,15.17
2018-12-06T13:57:40.751Z,17.23
2018-12-06T13:59:52.096Z,16.90
2018-12-06T14:02:02.828Z,17.37
2018-12-06T14:04:16.142Z,22.13
2018-12-06T14:06:26.067Z,22.70
2018-12-06T14:08:31.429Z,18.23
2018-12-06T14:10:39.815Z,22.03
2018-12-06T14:12:46.859Z,21.13
2018-12-06T14:14:54.412Z,24.77
2018-12-06T14:17:03.915Z,27.57
2018-12-06T14:19:14.411Z,30.40
2018-12-06T14:21:23.060Z,26.43
2018-12-06T14:23:29.355Z,29.73
2018-12-06T14:25:35.295Z,36.53
2018-12-06T14:27:44.813Z,32.77
2018-12-06T14:29:52.779Z,31.13
2018-12-06T14:32:03.532Z,35.83
2018-12-06T14:34:12.168Z,26.70
2018-12-06T14:36:19.328Z,30.97
2018-12-06T14:38:26.508Z,30.03
2018-12-06T14:40:35.614Z,29.57
2018-12-06T14:42:42.146Z,31.23
2018-12-06T14:44:48.412Z,34.07
2018-12-06T14:46:55.183Z,37.13
2018-12-06T14:49:01.927Z,33.93
2018-12-06T14:51:14.819Z,33.67
2018-12-06T14:53:25.159Z,30.80
2018-12-06T14:55:32.050Z,45.03
2018-12-06T14:57:40.001Z,37.03
2018-12-06T14:59:51.387Z,31.37
2018-12-06T15:02:02.755Z,36.90
2018-12-06T15:04:13.867Z,35.10
2018-12-06T15:06:24.428Z,35.83
2018-12-06T15:08:32.996Z,41.93
2018-12-06T15:10:42.316Z,34.03
2018-12-06T15:12:57.355Z,36.23
2018-12-06T15:15:10.796Z,34.67
2018-12-06T15:17:19.747Z,39.37
2018-12-06T15:19:26.551Z,38.53
2018-12-06T15:21:32.459Z,35.27
2018-12-06T15:23:41.815Z,36.63
2018-12-06T15:25:49.835Z,37.60
2018-12-06T15:27:56.345Z,38.03
2018-12-06T15:30:04.011Z,38.73
2018-12-06T15:32:15.839Z,38.73
2018-12-06T15:34:22.923Z,32.97
2018-12-06T15:36:28.837Z,37.87
2018-12-06T15:38:38.362Z,34.93
2018-12-06T15:40:46.976Z,44.97
2018-12-06T15:42:56.718Z,42.67
2018-12-06T15:45:04.271Z,34.17
2018-12-06T15:47:13.119Z,36.73
2018-12-06T15:49:27.790Z,35.73
2018-12-06T15:51:34.440Z,37.40
2018-12-06T15:53:42.824Z,32.93
2018-12-06T15:55:52.683Z,38.40
2018-12-06T15:58:02.962Z,36.70
2018-12-06T16:00:14.271Z,52.83
2018-12-06T16:02:28.044Z,40.73
2018-12-06T16:04:38.179Z,38.50
2018-12-06T16:06:44.931Z,31.07
2018-12-06T16:08:51.139Z,36.27
2018-12-06T16:10:57.483Z,36.13
2018-12-06T16:13:03.798Z,34.03
2018-12-06T16:15:11.021Z,35.83
2018-12-06T16:17:20.324Z,39.80
2018-12-06T16:19:26.658Z,31.93
2018-12-06T16:21:36.108Z,43.00
2018-12-06T16:23:44.708Z,35.63
2018-12-06T16:25:51.659Z,32.00
2018-12-06T16:28:00.963Z,31.87
2018-12-06T16:30:10.508Z,28.57
2018-12-06T16:32:19.149Z,27.60
2018-12-06T16:34:26.262Z,26.70
2018-12-06T16:36:36.991Z,34.07
2018-12-06T16:38:45.631Z,28.63
2018-12-06T16:40:52.099Z,29.50
2018-12-06T16:42:59.564Z,27.30
2018-12-06T16:45:08.367Z,34.97
2018-12-06T16:47:14.544Z,26.03
2018-12-06T16:49:25.347Z,28.30
2018-12-06T16:51:34.287Z,25.63
2018-12-06T16:53:44.045Z,24.93
2018-12-06T16:56:02.783Z,27.87
2018-12-06T16:58:20.426Z,29.87
2018-12-06T17:00:31.046Z,25.10
2018-12-06T17:02:37.727Z,33.03
2018-12-06T17:04:44.854Z,33.70
2018-12-06T17:06:54.028Z,32.23
2018-12-06T17:09:03.263Z,30.30
2018-12-06T17:11:13.759Z,33.80
2018-12-06T17:13:25.068Z,32.63
2018-12-06T17:15:32.909Z,35.87
2018-12-06T17:17:46.394Z,35.00
2018-12-06T17:19:55.048Z,31.50
2018-12-06T17:22:01.163Z,37.40
2018-12-06T17:24:12.488Z,32.17
2018-12-06T17:26:21.267Z,34.20
2018-12-06T17:28:32.621Z,27.83
2018-12-06T17:30:40.278Z,32.13
2018-12-06T17:32:47.479Z,31.87
2018-12-06T17:34:54.283Z,26.87
2018-12-06T17:37:00.940Z,32.47
2018-12-06T17:39:09.267Z,29.50
2018-12-06T17:41:16.149Z,25.40
2018-12-06T17:43:28.547Z,24.77
2018-12-06T17:45:39.835Z,22.60
2018-12-06T17:47:50.463Z,25.43
2018-12-06T17:50:00.907Z,18.53
2018-12-06T17:52:11.562Z,19.17
2018-12-06T17:54:20.404Z,26.17
2018-12-06T17:56:29.695Z,19.13
2018-12-06T17:58:40.931Z,20.63
2018-12-06T18:00:48.910Z,26.87
2018-12-06T18:02:56.780Z,18.67
2018-12-06T18:05:04.906Z,18.17
2018-12-06T18:07:12.004Z,20.73
2018-12-06T18:09:18.731Z,21.57
2018-12-06T18:11:28.075Z,18.07
2018-12-06T18:13:39.047Z,19.80
2018-12-06T18:15:46.255Z,21.97
2018-12-06T18:17:52.178Z,23.90
2018-12-06T18:19:58.891Z,16.80
2018-12-06T18:22:08.291Z,22.30
2018-12-06T18:24:18.763Z,22.27
2018-12-06T18:26:25.411Z,24.30
2018-12-06T18:28:33.100Z,24.37
2018-12-06T18:30:41.011Z,28.87
2018-12-06T18:32:47.567Z,22.40
2018-12-06T18:34:56.902Z,26.43
2018-12-06T18:37:03.645Z,25.13
2018-12-06T18:39:10.867Z,25.93
2018-12-06T18:41:19.407Z,29.40
2018-12-06T18:43:30.211Z,26.03
2018-12-06T18:45:39.979Z,27.87
2018-12-06T18:47:49.483Z,29.20
2018-12-06T18:50:00.076Z,30.50
2018-12-06T18:52:07.134Z,26.57
2018-12-06T18:54:13.375Z,25.60
2018-12-06T18:56:22.040Z,28.13
2018-12-06T18:58:34.329Z,27.13
2018-12-06T19:00:38.975Z,22.07
2018-12-06T19:02:49.347Z,24.17
2018-12-06T19:04:56.717Z,27.70
2018-12-06T19:07:03.791Z,27.20
2018-12-06T19:09:15.871Z,23.57
2018-12-06T19:11:24.515Z,23.73
2018-12-06T19:13:33.235Z,23.97
2018-12-06T19:15:41.583Z,21.57
2018-12-06T19:17:47.795Z,19.23
2018-12-06T19:19:57.516Z,24.87
2018-12-06T19:22:04.138Z,24.63
2018-12-06T19:24:10.987Z,23.67
2018-12-06T19:26:18.943Z,21.10
2018-12-06T19:28:29.207Z,19.27
2018-12-06T19:30:39.575Z,19.77
2018-12-06T19:32:57.694Z,22.27
2018-12-06T19:35:05.165Z,22.07
2018-12-06T19:37:12.524Z,21.67
2018-12-06T19:39:22.315Z,23.07
2018-12-06T19:41:32.227Z,23.97
2018-12-06T19:43:40.687Z,20.87
2018-12-06T19:45:47.895Z,23.43
2018-12-06T19:47:56.415Z,29.53
2018-12-06T19:50:23.964Z,28.93
2018-12-06T19:52:34.341Z,33.30
2018-12-06T19:54:41.847Z,37.00
2018-12-06T19:56:47.762Z,36.10
2018-12-06T19:58:54.139Z,44.40
2018-12-06T20:01:03.468Z,39.30
2018-12-06T20:03:11.200Z,42.27
2018-12-06T20:05:19.727Z,45.10
2018-12-06T20:07:30.571Z,49.37
2018-12-06T20:09:39.439Z,50.77
2018-12-06T20:11:50.432Z,51.37
2018-12-06T20:13:58.123Z,55.03
2018-12-06T20:16:06.702Z,55.00
2018-12-06T20:18:14.707Z,47.77
2018-12-06T20:20:23.803Z,50.13
2018-12-06T20:22:41.967Z,54.97
2018-12-06T20:24:51.355Z,48.40
2018-12-06T20:27:01.067Z,46.13
2018-12-06T20:29:08.972Z,50.47
2018-12-06T20:31:16.401Z,53.83
2018-12-06T20:33:23.152Z,52.63
2018-12-06T20:35:29.723Z,61.30
2018-12-06T20:37:36.642Z,59.53
2018-12-06T20:39:44.195Z,63.70
2018-12-06T20:41:51.723Z,64.57
2018-12-06T20:43:58.603Z,73.00
2018-12-06T20:46:04.763Z,61.40
2018-12-06T20:48:10.647Z,74.57
2018-12-06T20:50:20.087Z,60.90
2018-12-06T20:52:31.083Z,59.10
2018-12-06T20:54:39.679Z,61.67
2018-12-06T20:56:45.670Z,64.77
2018-12-06T20:58:53.007Z,63.50
2018-12-06T21:01:01.122Z,59.13
2018-12-06T21:03:08.643Z,55.40
2018-12-06T21:05:22.559Z,61.20
2018-12-06T21:07:31.469Z,57.50
2018-12-06T21:09:38.579Z,55.30
2018-12-06T21:11:46.219Z,51.33
2018-12-06T21:13:57.748Z,53.87
2018-12-06T21:16:08.127Z,61.47
2018-12-06T21:18:24.587Z,60.13
2018-12-06T21:20:33.527Z,61.27
2018-12-06T21:22:42.443Z,60.13
2018-12-06T21:24:55.006Z,60.30
2018-12-06T21:27:02.607Z,56.97
2018-12-06T21:29:09.131Z,61.30
2018-12-06T21:31:20.649Z,58.23
2018-12-06T21:33:27.935Z,53.30
2018-12-06T21:35:34.005Z,60.27
2018-12-06T21:37:40.150Z,59.10
2018-12-06T21:39:52.153Z,65.40
2018-12-06T21:42:04.012Z,56.20
2018-12-06T21:44:28.671Z,57.27
2018-12-06T21:46:39.947Z,63.07
2018-12-06T21:48:50.527Z,57.93
2018-12-06T21:50:55.887Z,60.23
2018-12-06T21:53:07.441Z,64.43
2018-12-06T21:55:17.703Z,65.00
2018-12-06T21:57:29.964Z,79.63
2018-12-06T21:59:38.818Z,81.67
2018-12-06T22:01:46.315Z,79.83
2018-12-06T22:03:55.147Z,85.30
2018-12-06T22:06:03.456Z,80.20
2018-12-06T22:08:11.842Z,64.03
2018-12-06T22:10:18.891Z,59.97
2018-12-06T22:12:27.515Z,53.87
2018-12-06T22:14:36.256Z,56.80
2018-12-06T22:16:51.051Z,60.83
2018-12-06T22:18:58.082Z,58.37
2018-12-06T22:21:07.467Z,63.83
2018-12-06T22:23:15.548Z,57.53
2018-12-06T22:25:23.499Z,68.37
2018-12-06T22:27:32.075Z,61.07
2018-12-06T22:29:38.850Z,55.07
2018-12-06T22:31:45.010Z,62.70
2018-12-06T22:33:52.658Z,59.67
2018-12-06T22:36:00.191Z,59.27
2018-12-06T22:38:08.139Z,58.20
2018-12-06T22:40:15.923Z,51.37
2018-12-06T22:42:22.188Z,48.87
2018-12-06T22:44:28.115Z,43.27
2018-12-06T22:46:38.571Z,43.67
2018-12-06T22:48:48.067Z,38.70
2018-12-06T22:50:55.482Z,33.63
2018-12-06T22:53:02.759Z,26.10
2018-12-06T22:55:12.206Z,22.27
2018-12-06T22:57:21.559Z,29.70
2018-12-06T22:59:29.227Z,24.30
2018-12-06T23:01:44.839Z,25.83
2018-12-06T23:03:52.075Z,21.63
2018-12-06T23:05:59.026Z,22.57
2018-12-06T23:08:08.022Z,25.40
2018-12-06T23:10:15.125Z,24.70
2018-12-06T23:12:21.415Z,22.20
2018-12-06T23:14:32.406Z,19.80
2018-12-06T23:16:41.975Z,22.33
2018-12-06T23:18:53.517Z,19.27
2018-12-06T23:21:00.287Z,20.77
2018-12-06T23:23:07.873Z,18.20
2018-12-06T23:25:13.845Z,22.90
2018-12-06T23:27:19.756Z,29.90
2018-12-06T23:29:34.571Z,25.50
2018-12-06T23:31:43.919Z,26.87
2018-12-06T23:33:51.243Z,25.07
2018-12-06T23:36:03.052Z,27.87
2018-12-06T23:38:12.387Z,27.67
2018-12-06T23:40:23.163Z,25.73
2018-12-06T23:42:32.427Z,21.57
2018-12-06T23:44:40.811Z,29.07
2018-12-06T23:46:49.631Z,24.13
2018-12-06T23:48:58.375Z,22.43
2018-12-06T23:51:41.323Z,24.17
2018-12-06T23:53:48.063Z,26.53
2018-12-06T23:55:55.940Z,27.03
2018-12-06T23:58:06.207Z,26.50
